Time;durP1;ratioP1;P1;durP2;ratioP2;P2;SDS_P1;SDS_P2;PMS_P1;PMS_P2;Temp;Humidity;BMP_temperature;BMP_pressure;BME280_temperature;BME280_humidity;BME280_pressure;Samples;Min_cycle;Max_cycle;Signal;HPM_P1;HPM_P2
2023/07/12 00:00:47;;;;;;;9.35;5.28;;;;;;;12.86;81.12;98640.41;4920023;29;20051;-67
2023/07/12 00:03:14;;;;;;;12.10;5.07;;;;;;;12.85;80.81;98636.03;4920007;29;20055;-69
2023/07/12 00:05:40;;;;;;;8.10;4.78;;;;;;;12.86;81.36;98640.41;4920028;29;20485;-66
2023/07/12 00:08:16;;;;;;;14.48;5.28;;;;;;;12.86;81.11;98629.69;4920499;28;20058;-65
2023/07/12 00:10:42;;;;;;;7.88;4.63;;;;;;;12.84;81.02;98639.69;4937302;28;20429;-66
2023/07/12 00:13:09;;;;;;;12.45;5.82;;;;;;;12.84;80.90;98639.69;4919651;29;20051;-66
2023/07/12 00:15:36;;;;;;;13.68;5.05;;;;;;;12.81;80.91;98642.66;4919956;29;20486;-65
2023/07/12 00:18:01;;;;;;;8.45;4.72;;;;;;;12.79;80.46;98642.81;4925553;28;20485;-65
2023/07/12 00:20:33;;;;;;;9.18;3.90;;;;;;;12.78;80.84;98643.78;4938500;28;20059;-66
2023/07/12 00:23:00;;;;;;;11.85;4.70;;;;;;;12.70;81.04;98636.50;4938507;28;20050;-65
2023/07/12 00:25:29;;;;;;;7.07;4.50;;;;;;;12.68;80.72;98643.00;4938423;28;20043;-67
2023/07/12 00:27:54;;;;;;;9.07;4.15;;;;;;;12.64;80.66;98637.09;4934550;28;20051;-63
2023/07/12 00:30:22;;;;;;;5.45;4.07;;;;;;;12.62;81.08;98633.75;4938715;28;20038;-62
2023/07/12 00:32:50;;;;;;;5.78;4.40;;;;;;;12.62;80.92;98643.59;4953838;28;20059;-62
2023/07/12 00:35:19;;;;;;;6.43;3.90;;;;;;;12.61;81.28;98632.06;4953790;28;20054;-63
2023/07/12 00:37:46;;;;;;;6.28;4.40;;;;;;;12.60;80.77;98634.88;4938774;28;20054;-62
2023/07/12 00:40:18;;;;;;;6.32;4.68;;;;;;;12.62;81.14;98631.06;4938686;28;20042;-63
2023/07/12 00:42:45;;;;;;;5.82;4.18;;;;;;;12.62;81.27;98649.78;4936156;28;20509;-63
2023/07/12 00:45:12;;;;;;;6.57;3.83;;;;;;;12.62;81.12;98631.06;4922527;28;20043;-65
2023/07/12 00:47:40;;;;;;;7.43;4.07;;;;;;;12.60;80.67;98630.38;4919267;29;20069;-63
2023/07/12 00:50:35;;;;;;;6.63;4.32;;;;;;;12.71;81.30;98632.00;4919020;29;20043;-63
2023/07/12 00:53:00;;;;;;;6.78;4.10;;;;;;;12.63;80.87;98629.25;4860202;29;20064;-62
2023/07/12 00:55:58;;;;;;;5.55;4.15;;;;;;;12.69;80.58;98628.63;4859640;29;20061;-63
2023/07/12 00:58:29;;;;;;;6.13;4.05;;;;;;;12.62;81.12;98628.41;4860575;29;20052;-63
2023/07/12 01:00:56;;;;;;;7.00;4.13;;;;;;;12.63;80.53;98634.59;4860111;29;20099;-62
2023/07/12 01:03:25;;;;;;;5.35;4.03;;;;;;;12.64;80.26;98625.59;4860149;29;20424;-61
2023/07/12 01:05:51;;;;;;;5.70;4.55;;;;;;;12.62;80.53;98623.06;4860260;29;20041;-62
2023/07/12 01:08:16;;;;;;;5.13;4.15;;;;;;;12.61;80.60;98631.22;4860256;29;20044;-65
2023/07/12 01:10:41;;;;;;;7.45;4.18;;;;;;;12.60;80.69;98619.69;4877238;29;20099;-63
2023/07/12 01:13:08;;;;;;;5.38;3.55;;;;;;;12.60;80.21;98618.84;4878887;29;20055;-63
2023/07/12 01:15:35;;;;;;;6.47;3.63;;;;;;;12.58;80.29;98616.31;4878028;29;20055;-71
2023/07/12 01:18:02;;;;;;;8.27;4.82;;;;;;;12.58;80.49;98594.06;4878155;29;20079;-70
2023/07/12 01:20:34;;;;;;;6.70;4.10;;;;;;;12.59;80.22;98622.50;4878632;29;20078;-70
2023/07/12 01:22:59;;;;;;;6.50;3.80;;;;;;;12.55;79.94;98603.22;4878340;29;20056;-70
2023/07/12 01:26:10;;;;;;;5.72;3.75;;;;;;;12.62;79.99;98622.22;4878542;29;20043;-70
2023/07/12 01:28:36;;;;;;;6.78;4.38;;;;;;;12.52;80.15;98611.56;4872553;29;20051;-68
2023/07/12 01:31:03;;;;;;;4.25;3.67;;;;;;;12.50;80.10;98608.19;4913568;28;20042;-69
2023/07/12 01:33:29;;;;;;;4.90;3.97;;;;;;;12.49;80.45;98606.50;4937290;28;20050;-70
2023/07/12 01:35:54;;;;;;;5.63;3.97;;;;;;;12.47;80.09;98603.13;4942633;28;20046;-67
2023/07/12 01:38:19;;;;;;;6.05;4.28;;;;;;;12.43;79.92;98603.56;4934579;28;20047;-67
2023/07/12 01:40:44;;;;;;;5.03;4.05;;;;;;;12.41;79.78;98603.72;4937268;28;21303;-68
2023/07/12 01:43:10;;;;;;;5.85;4.22;;;;;;;12.36;80.04;98600.63;4937712;28;20049;-69
2023/07/12 01:45:35;;;;;;;4.68;3.38;;;;;;;12.35;80.43;98605.13;4936468;28;20042;-68
2023/07/12 01:48:01;;;;;;;6.55;3.78;;;;;;;12.32;80.20;98602.75;4937193;28;20049;-68
2023/07/12 01:50:26;;;;;;;6.15;3.70;;;;;;;12.31;80.10;98605.56;4935732;28;20043;-68
2023/07/12 01:52:51;;;;;;;11.75;3.88;;;;;;;12.30;80.47;98604.72;4929745;28;20046;-68
2023/07/12 01:55:19;;;;;;;6.13;3.90;;;;;;;12.32;80.05;98607.25;4931348;28;20743;-67
2023/07/12 01:57:46;;;;;;;6.35;4.07;;;;;;;12.32;80.58;98593.88;4935873;28;20413;-67
2023/07/12 02:00:13;;;;;;;5.40;3.85;;;;;;;12.32;79.91;98600.06;4923298;28;20050;-67
2023/07/12 02:02:44;;;;;;;4.80;3.70;;;;;;;12.35;80.37;98598.94;4926407;28;20066;-71
2023/07/12 02:05:10;;;;;;;6.57;4.10;;;;;;;12.39;80.16;98589.66;4935781;28;20054;-71
2023/07/12 02:07:35;;;;;;;5.07;3.80;;;;;;;12.42;79.66;98609.88;4935503;28;20054;-71
2023/07/12 02:10:26;;;;;;;5.57;3.80;;;;;;;12.54;79.49;98614.91;4936196;28;20054;-76
2023/07/12 02:12:52;;;;;;;4.45;3.42;;;;;;;12.49;79.40;98606.50;4921332;28;20068;-75
2023/07/12 02:15:19;;;;;;;4.72;3.80;;;;;;;12.51;79.25;98609.03;4936774;28;20520;-74
2023/07/12 02:17:45;;;;;;;4.00;3.53;;;;;;;12.54;79.29;98566.78;4935727;28;20047;-73
2023/07/12 02:20:14;;;;;;;5.68;4.00;;;;;;;12.57;78.56;98601.25;4913836;28;20058;-72
2023/07/12 02:22:43;;;;;;;4.63;3.65;;;;;;;12.60;78.84;98611.66;4924028;28;20497;-73
2023/07/12 02:25:11;;;;;;;5.82;3.50;;;;;;;12.64;78.78;98604.19;4919811;28;20122;-73
2023/07/12 02:27:38;;;;;;;9.43;3.75;;;;;;;12.68;78.37;98606.41;4927284;28;20042;-73
2023/07/12 02:30:06;;;;;;;8.55;4.00;;;;;;;12.71;78.13;98632.00;4936977;28;20054;-74
2023/07/12 02:32:31;;;;;;;5.70;3.55;;;;;;;12.70;77.74;98609.78;4936255;28;20047;-74
2023/07/12 02:34:56;;;;;;;4.75;3.80;;;;;;;12.73;77.36;98603.28;4919560;28;20054;-75
2023/07/12 02:37:22;;;;;;;9.32;3.78;;;;;;;12.74;77.96;98596.97;4934932;28;20059;-73
2023/07/12 02:39:47;;;;;;;4.47;3.75;;;;;;;12.71;77.24;98606.13;4937050;28;20057;-75
2023/07/12 02:42:12;;;;;;;4.70;3.72;;;;;;;12.71;77.53;98599.91;4935207;28;20062;-76
2023/07/12 02:44:41;;;;;;;3.75;3.28;;;;;;;12.70;77.39;98609.78;4936964;28;20049;-76
2023/07/12 02:47:09;;;;;;;5.80;3.65;;;;;;;12.73;77.35;98593.44;4936998;28;20046;-75
2023/07/12 02:49:35;;;;;;;5.00;3.17;;;;;;;12.77;77.13;98593.13;4936514;28;20035;-75
2023/07/12 02:52:00;;;;;;;5.85;3.33;;;;;;;12.81;77.05;98589.16;4952376;28;20074;-75
2023/07/12 02:54:25;;;;;;;5.20;3.25;;;;;;;12.80;76.58;98609.72;4937041;28;20046;-76
2023/07/12 02:56:50;;;;;;;3.90;3.45;;;;;;;12.87;76.08;98593.91;4951830;28;20413;-76
2023/07/12 02:59:18;;;;;;;5.20;4.13;;;;;;;12.89;76.44;98586.59;4937103;28;20051;-77
2023/07/12 03:01:46;;;;;;;4.07;3.53;;;;;;;12.93;76.11;98604.03;4937443;28;20038;-74
2023/07/12 03:04:12;;;;;;;6.20;3.70;;;;;;;12.92;75.33;98592.47;4935541;28;20050;-75
2023/07/12 03:06:37;;;;;;;5.63;3.78;;;;;;;12.87;75.34;98588.56;4936776;28;20047;-73
2023/07/12 03:09:04;;;;;;;3.83;2.92;;;;;;;12.85;75.27;98604.78;4936669;28;20047;-74
2023/07/12 03:11:29;;;;;;;4.53;3.30;;;;;;;12.84;75.28;98573.69;4935346;28;20417;-76
2023/07/12 03:13:54;;;;;;;3.40;3.10;;;;;;;12.86;75.42;98581.56;4936759;28;20417;-73
2023/07/12 03:16:20;;;;;;;4.10;3.28;;;;;;;12.86;75.16;98608.31;4937309;28;20053;-75
2023/07/12 03:18:45;;;;;;;4.30;3.20;;;;;;;12.88;75.54;98585.72;4937012;28;20050;-74
2023/07/12 03:21:10;;;;;;;5.25;3.42;;;;;;;12.91;75.34;98589.94;4940140;28;20069;-74
2023/07/12 03:23:35;;;;;;;4.10;3.03;;;;;;;12.96;75.02;98550.22;4955295;28;20050;-73
2023/07/12 03:26:01;;;;;;;7.45;3.60;;;;;;;13.01;75.04;98580.03;4939983;28;20046;-71
2023/07/12 03:28:26;;;;;;;4.15;3.75;;;;;;;13.06;74.85;98577.75;4938932;28;20050;-72
2023/07/12 03:31:02;;;;;;;6.93;2.88;;;;;;;13.19;74.67;98582.78;4939780;28;20057;-73
2023/07/12 03:33:28;;;;;;;5.40;3.45;;;;;;;13.19;74.28;98583.63;4938570;28;20051;-71
2023/07/12 03:35:54;;;;;;;4.65;3.20;;;;;;;13.22;73.98;98604.69;4938322;28;20398;-71
2023/07/12 03:38:20;;;;;;;4.07;2.92;;;;;;;13.27;73.56;98591.72;4939816;28;20049;-71
2023/07/12 03:40:47;;;;;;;6.40;4.22;;;;;;;13.30;72.70;98602.13;4937888;28;20046;-72
2023/07/12 03:43:12;;;;;;;4.72;2.88;;;;;;;13.41;73.19;98585.84;4922540;28;20050;-71
2023/07/12 03:45:37;;;;;;;5.22;3.33;;;;;;;13.52;72.65;98581.25;4939671;28;20050;-72
2023/07/12 03:48:02;;;;;;;5.07;4.18;;;;;;;13.62;72.49;98584.69;4939541;28;20045;-72
2023/07/12 03:50:28;;;;;;;3.03;2.78;;;;;;;13.72;72.18;98580.06;4939619;28;20047;-71
2023/07/12 03:52:53;;;;;;;4.30;3.15;;;;;;;13.79;71.76;98565.03;4954695;28;20443;-71
2023/07/12 03:55:18;;;;;;;2.92;2.53;;;;;;;13.92;71.68;98570.00;4938432;28;20050;-73
2023/07/12 03:57:45;;;;;;;7.45;3.20;;;;;;;13.98;71.06;98569.38;4939157;28;20049;-72
2023/07/12 04:00:12;;;;;;;6.10;3.75;;;;;;;14.02;70.36;98571.56;4939423;28;20140;-73
2023/07/12 04:02:41;;;;;;;5.45;3.40;;;;;;;14.06;69.66;98534.59;4954098;28;20050;-73
2023/07/12 04:05:06;;;;;;;5.30;3.13;;;;;;;14.12;69.75;98566.94;4939213;28;20053;-72
2023/07/12 04:07:32;;;;;;;4.05;3.55;;;;;;;14.16;68.98;98572.84;4939236;28;20035;-71
2023/07/12 04:09:57;;;;;;;6.97;3.63;;;;;;;14.20;68.87;98595.66;4937709;28;20494;-74
2023/07/12 04:12:22;;;;;;;4.00;3.22;;;;;;;14.23;68.87;98562.31;4939287;28;20050;-71
2023/07/12 04:14:48;;;;;;;6.32;3.55;;;;;;;14.23;68.82;98589.13;4939368;28;20057;-72
2023/07/12 04:17:13;;;;;;;4.10;3.50;;;;;;;14.18;68.17;98574.38;4937659;28;20886;-72
2023/07/12 04:19:39;;;;;;;5.05;3.03;;;;;;;14.20;68.10;98568.84;4905556;28;20054;-72
2023/07/12 04:22:04;;;;;;;4.20;3.17;;;;;;;14.18;68.25;98577.06;4953585;28;20438;-73
2023/07/12 04:24:29;;;;;;;5.82;3.63;;;;;;;14.21;68.42;98564.34;4939178;28;20044;-74
2023/07/12 04:26:54;;;;;;;5.43;3.70;;;;;;;14.24;68.35;98564.00;4953850;28;20502;-73
2023/07/12 04:29:20;;;;;;;5.43;3.78;;;;;;;14.28;68.52;98565.38;4938447;28;20039;-73
2023/07/12 04:31:46;;;;;;;4.40;3.35;;;;;;;14.28;67.93;98562.69;4921417;28;20054;-73
2023/07/12 04:34:12;;;;;;;4.20;3.45;;;;;;;14.27;67.79;98569.06;4937567;28;20053;-73
2023/07/12 04:36:37;;;;;;;6.50;3.58;;;;;;;14.25;67.79;98577.25;4938695;28;20552;-73
2023/07/12 04:39:02;;;;;;;5.45;3.17;;;;;;;14.21;67.59;98567.88;4937391;28;20054;-73
2023/07/12 04:41:28;;;;;;;4.55;3.30;;;;;;;14.18;67.52;98560.97;4937503;28;20129;-73
2023/07/12 04:43:53;;;;;;;5.63;3.72;;;;;;;14.15;68.00;98581.88;4921320;28;20055;-73
2023/07/12 04:46:18;;;;;;;8.98;4.38;;;;;;;14.14;67.70;98564.13;4938572;28;20047;-74
2023/07/12 04:48:44;;;;;;;9.13;3.88;;;;;;;14.10;68.25;98573.50;4939038;28;20034;-74
2023/07/12 04:51:09;;;;;;;5.13;3.80;;;;;;;14.09;68.45;98572.66;4938654;28;20046;-74
2023/07/12 04:53:34;;;;;;;4.85;4.25;;;;;;;14.08;67.79;98575.47;4937025;28;20085;-72
2023/07/12 04:56:00;;;;;;;5.25;3.70;;;;;;;14.07;67.60;98569.28;4921355;28;20421;-74
2023/07/12 04:58:26;;;;;;;5.28;3.60;;;;;;;14.10;68.09;98579.69;4938826;28;20051;-74
2023/07/12 05:00:51;;;;;;;3.72;3.30;;;;;;;14.18;68.20;98570.84;4937249;28;20055;-74
2023/07/12 05:03:17;;;;;;;5.43;3.17;;;;;;;14.23;67.75;98571.19;4953185;28;20046;-74
2023/07/12 05:05:42;;;;;;;4.95;3.40;;;;;;;14.26;67.50;98578.09;4936862;28;20054;-74
2023/07/12 05:08:07;;;;;;;3.60;3.05;;;;;;;14.30;67.12;98580.31;4937014;28;20419;-74
2023/07/12 05:10:33;;;;;;;9.82;3.10;;;;;;;14.34;66.98;98575.44;4937101;28;20050;-74
2023/07/12 05:12:58;;;;;;;3.90;2.58;;;;;;;14.34;67.16;98570.09;4938589;28;20053;-74
2023/07/12 05:15:24;;;;;;;3.08;2.80;;;;;;;14.35;66.88;98566.41;4937017;28;20050;-73
2023/07/12 05:17:49;;;;;;;3.47;2.90;;;;;;;14.35;66.66;98561.88;4936738;28;20053;-73
2023/07/12 05:20:15;;;;;;;4.85;2.72;;;;;;;14.35;66.63;98569.09;4936322;28;20334;-73
2023/07/12 05:22:41;;;;;;;3.33;3.03;;;;;;;14.34;66.43;98572.75;4938301;28;20057;-73
2023/07/12 05:25:07;;;;;;;4.10;2.58;;;;;;;14.31;66.74;98555.19;4936753;28;20382;-72
2023/07/12 05:27:32;;;;;;;3.08;2.65;;;;;;;14.28;66.15;98581.47;4936391;28;20413;-73
2023/07/12 05:29:58;;;;;;;3.38;2.67;;;;;;;14.24;66.26;98550.59;4952988;28;20034;-73
2023/07/12 05:32:23;;;;;;;3.25;2.92;;;;;;;14.23;66.05;98547.06;4936034;28;20406;-73
2023/07/12 05:34:48;;;;;;;8.43;3.25;;;;;;;14.17;66.79;98543.22;4937912;28;20034;-73
2023/07/12 05:37:13;;;;;;;4.18;3.10;;;;;;;14.22;66.60;98550.75;4936938;28;20057;-73
2023/07/12 05:39:39;;;;;;;3.20;2.72;;;;;;;14.28;66.57;98576.09;4937641;28;20038;-74
2023/07/12 05:42:04;;;;;;;3.47;3.17;;;;;;;14.39;66.58;98547.19;4936184;28;20046;-73
2023/07/12 05:44:30;;;;;;;3.00;2.63;;;;;;;14.52;66.42;98536.03;4937547;28;20516;-73
2023/07/12 05:46:55;;;;;;;5.85;3.05;;;;;;;14.67;65.22;98539.75;4936354;28;20053;-73
2023/07/12 05:49:21;;;;;;;2.72;2.40;;;;;;;14.75;64.60;98563.13;4935836;28;20417;-74
2023/07/12 05:51:46;;;;;;;6.85;3.28;;;;;;;14.78;64.40;98536.81;4936419;28;20421;-73
2023/07/12 05:54:14;;;;;;;3.40;2.45;;;;;;;14.81;64.28;98549.03;4937509;28;20050;-73
2023/07/12 05:56:39;;;;;;;2.58;2.35;;;;;;;14.83;64.02;98528.25;4952507;28;20050;-73
2023/07/12 05:59:04;;;;;;;4.25;2.88;;;;;;;14.87;63.87;98551.09;4935590;28;20047;-75
2023/07/12 06:01:30;;;;;;;4.35;3.05;;;;;;;14.90;63.81;98546.19;4952166;28;20046;-73
2023/07/12 06:03:55;;;;;;;4.03;2.47;;;;;;;15.01;63.88;98487.88;4937152;28;20038;-73
2023/07/12 06:06:20;;;;;;;2.47;2.28;;;;;;;15.14;62.98;98531.16;4935845;28;20058;-73
2023/07/12 06:08:46;;;;;;;6.03;2.97;;;;;;;15.32;62.73;98533.72;4936982;28;20398;-73
2023/07/12 06:11:14;;;;;;;3.55;2.78;;;;;;;15.59;62.11;98528.03;4937012;28;20050;-73
2023/07/12 06:13:39;;;;;;;5.90;2.75;;;;;;;15.73;61.28;98521.16;4919829;28;20405;-73
2023/07/12 06:16:05;;;;;;;3.42;2.50;;;;;;;15.72;60.45;98519.47;4935564;28;20043;-75
2023/07/12 06:18:31;;;;;;;4.03;2.63;;;;;;;15.61;60.52;98510.75;4935494;28;20047;-73
2023/07/12 06:20:59;;;;;;;4.35;2.67;;;;;;;15.51;60.78;98523.47;4936840;28;20046;-74
2023/07/12 06:23:25;;;;;;;2.70;2.50;;;;;;;15.37;60.71;98531.34;4936927;28;20354;-73
2023/07/12 06:25:51;;;;;;;5.95;3.03;;;;;;;15.23;61.01;98530.19;4936811;28;20055;-73
2023/07/12 06:28:19;;;;;;;4.25;2.97;;;;;;;15.21;61.61;98549.16;4951407;28;20053;-73
2023/07/12 06:30:44;;;;;;;2.85;2.53;;;;;;;15.36;61.94;98519.78;4935326;28;20059;-73
2023/07/12 06:33:10;;;;;;;3.67;2.90;;;;;;;15.65;61.56;98535.44;4936681;28;20069;-73
2023/07/12 06:35:35;;;;;;;3.42;2.25;;;;;;;16.08;60.42;98523.44;4936674;28;20069;-74
2023/07/12 06:38:01;;;;;;;4.20;3.00;;;;;;;16.44;59.07;98514.94;4936799;28;20409;-74
2023/07/12 06:40:26;;;;;;;5.25;2.92;;;;;;;16.69;58.23;98516.53;4936712;28;20045;-72
2023/07/12 06:42:51;;;;;;;4.53;3.08;;;;;;;16.86;58.06;98504.66;4934876;28;20544;-73
2023/07/12 06:45:17;;;;;;;6.00;3.55;;;;;;;16.93;57.84;98516.38;4936827;28;20057;-73
2023/07/12 06:47:42;;;;;;;3.55;3.13;;;;;;;17.00;57.52;98511.16;4952004;28;20058;-73
2023/07/12 06:50:08;;;;;;;3.47;2.50;;;;;;;17.06;57.02;98521.19;4936898;28;20039;-77
2023/07/12 06:52:33;;;;;;;4.30;3.42;;;;;;;17.10;57.26;98513.59;4936883;28;20054;-72
2023/07/12 06:54:58;;;;;;;5.15;3.17;;;;;;;16.96;56.77;98520.59;4940317;28;20038;-74
2023/07/12 06:57:24;;;;;;;4.00;2.92;;;;;;;16.83;57.38;98531.09;4940952;28;20042;-74
2023/07/12 06:59:49;;;;;;;9.65;3.40;;;;;;;16.73;58.04;98531.31;4939136;28;20054;-73
2023/07/12 07:02:15;;;;;;;3.17;2.50;;;;;;;16.68;58.02;98549.84;4940427;28;20524;-73
2023/07/12 07:04:40;;;;;;;3.45;2.90;;;;;;;16.63;58.46;98514.53;4940500;28;20047;-72
2023/07/12 07:07:05;;;;;;;3.35;2.75;;;;;;;16.65;58.38;98509.81;4940681;28;20051;-73
2023/07/12 07:09:36;;;;;;;6.82;2.90;;;;;;;16.66;58.36;98509.66;4940535;28;20034;-71
2023/07/12 07:12:01;;;;;;;6.85;2.97;;;;;;;16.62;57.91;98508.31;4940295;28;20055;-72
2023/07/12 07:14:26;;;;;;;7.07;3.55;;;;;;;16.54;58.17;98520.94;4938979;28;20047;-74
2023/07/12 07:16:51;;;;;;;4.63;2.83;;;;;;;16.47;58.50;98510.06;4939569;28;20055;-75
2023/07/12 07:19:16;;;;;;;5.95;3.28;;;;;;;16.39;58.51;98501.16;4940071;28;20055;-75
2023/07/12 07:21:42;;;;;;;5.65;2.63;;;;;;;16.27;58.59;98509.59;4938653;28;20065;-76
2023/07/12 07:24:08;;;;;;;7.97;2.90;;;;;;;16.24;58.80;98509.13;4939293;28;20058;-74
2023/07/12 07:26:33;;;;;;;5.28;2.80;;;;;;;16.19;58.55;98522.25;4940207;28;20050;-75
2023/07/12 07:28:58;;;;;;;4.18;2.70;;;;;;;16.15;58.89;98521.72;4938519;28;20052;-75
2023/07/12 07:31:24;;;;;;;7.40;3.30;;;;;;;16.12;58.92;98519.41;4937996;28;20121;-74
2023/07/12 07:33:49;;;;;;;4.60;3.08;;;;;;;16.07;58.75;98532.50;4938134;28;20050;-74
2023/07/12 07:36:15;;;;;;;7.22;2.95;;;;;;;16.05;58.96;98520.25;4921973;28;20417;-73
2023/07/12 07:38:40;;;;;;;2.85;2.60;;;;;;;16.01;59.07;98535.06;4939591;28;20144;-74
2023/07/12 07:41:11;;;;;;;4.15;2.75;;;;;;;15.97;59.07;98524.66;4938679;28;20054;-74
2023/07/12 07:43:39;;;;;;;4.43;3.20;;;;;;;15.98;59.52;98512.88;4939793;28;20409;-75
2023/07/12 07:46:05;;;;;;;4.35;2.72;;;;;;;16.06;59.52;98543.44;4939686;28;20050;-74
2023/07/12 07:48:31;;;;;;;4.18;3.58;;;;;;;16.12;59.46;98515.88;4939430;28;20472;-76
2023/07/12 07:50:56;;;;;;;3.60;2.75;;;;;;;16.17;59.13;98517.03;4954496;28;20054;-75
2023/07/12 07:53:21;;;;;;;5.07;2.83;;;;;;;16.26;59.13;98504.38;4939386;28;20413;-73
2023/07/12 07:55:48;;;;;;;3.75;3.22;;;;;;;16.41;59.17;98505.34;4921923;28;20417;-75
2023/07/12 07:58:14;;;;;;;5.07;3.08;;;;;;;16.61;58.59;98511.13;4939413;28;20054;-75
2023/07/12 08:00:39;;;;;;;5.00;2.97;;;;;;;16.83;58.04;98513.06;4939483;28;20117;-73
2023/07/12 08:03:06;;;;;;;5.13;3.20;;;;;;;17.02;57.58;98507.25;4937713;28;20418;-71
2023/07/12 08:05:32;;;;;;;4.60;3.03;;;;;;;17.29;56.70;98505.03;4939292;28;20055;-73
2023/07/12 08:07:58;;;;;;;6.22;3.40;;;;;;;17.64;56.07;98507.16;4954336;28;20050;-74
2023/07/12 08:10:23;;;;;;;2.95;2.40;;;;;;;17.99;55.57;98529.06;4939161;28;20039;-73
2023/07/12 08:12:49;;;;;;;2.83;2.58;;;;;;;18.37;54.28;98502.88;4953914;28;20046;-75
2023/07/12 08:15:18;;;;;;;6.70;2.90;;;;;;;18.71;53.70;98499.59;4939180;28;20423;-73
2023/07/12 08:17:43;;;;;;;6.53;3.15;;;;;;;18.97;52.60;98496.34;4939319;28;20047;-72
2023/07/12 08:20:09;;;;;;;6.40;3.63;;;;;;;19.07;51.96;98503.16;4938996;28;20426;-74
2023/07/12 08:22:34;;;;;;;7.13;3.05;;;;;;;19.19;51.88;98496.19;4954273;28;20881;-74
2023/07/12 08:25:00;;;;;;;3.60;2.58;;;;;;;19.42;51.05;98516.78;4953960;28;20047;-73
2023/07/12 08:27:25;;;;;;;3.85;2.50;;;;;;;19.62;50.82;98495.38;4937699;28;20066;-74
2023/07/12 08:29:50;;;;;;;6.05;2.80;;;;;;;19.67;50.49;98495.63;4937363;28;20057;-74
2023/07/12 08:32:17;;;;;;;4.95;3.05;;;;;;;19.83;50.26;98509.72;4938600;28;20046;-74
2023/07/12 08:34:43;;;;;;;3.90;2.78;;;;;;;20.13;50.15;98488.69;4936970;28;20054;-74
2023/07/12 08:37:08;;;;;;;3.03;2.83;;;;;;;20.44;49.29;98490.97;4938568;28;20038;-74
2023/07/12 08:39:33;;;;;;;3.92;2.92;;;;;;;20.69;47.88;98482.34;4938481;28;20042;-73
2023/07/12 08:41:59;;;;;;;4.32;3.00;;;;;;;20.74;47.33;98458.19;4938665;28;20053;-75
2023/07/12 08:44:26;;;;;;;7.50;3.03;;;;;;;20.76;47.35;98489.47;4938537;28;20130;-76
2023/07/12 08:46:57;;;;;;;3.35;2.80;;;;;;;20.87;46.75;98485.34;4938239;28;20050;-74
2023/07/12 08:49:24;;;;;;;5.30;3.13;;;;;;;20.90;46.62;98485.75;4939767;28;20437;-75
2023/07/12 08:51:50;;;;;;;5.75;3.28;;;;;;;20.77;47.09;98485.69;4921969;28;20043;-74
2023/07/12 08:54:33;;;;;;;3.80;3.28;;;;;;;20.66;46.56;98494.41;4929089;28;20394;-71
2023/07/12 08:57:22;;;;;;;5.53;3.05;;;;;;;20.43;46.71;98494.72;4942153;28;20057;-71
2023/07/12 09:00:01;;;;;;;4.97;2.67;;;;;;;20.14;47.84;98494.94;4925000;28;20051;-72
2023/07/12 09:02:32;;;;;;;3.63;2.50;;;;;;;19.73;48.16;98487.56;4922969;28;20047;-71
2023/07/12 09:05:09;;;;;;;2.67;2.38;;;;;;;19.57;48.22;98493.25;4943593;28;20051;-71
2023/07/12 09:07:35;;;;;;;3.95;2.75;;;;;;;19.48;48.87;98495.25;4937777;28;20074;-72
2023/07/12 09:10:01;;;;;;;3.35;2.95;;;;;;;19.47;48.88;98487.31;4926214;28;20049;-71
2023/07/12 09:12:35;;;;;;;9.13;2.67;;;;;;;19.59;49.04;98496.59;4919180;28;20057;-72
2023/07/12 09:15:09;;;;;;;10.85;3.33;;;;;;;19.70;48.46;98487.13;4919172;28;20517;-71
2023/07/12 09:17:44;;;;;;;3.92;2.60;;;;;;;19.76;47.88;98459.28;4930599;28;20059;-71
2023/07/12 09:20:32;;;;;;;3.85;2.83;;;;;;;19.86;47.47;98513.91;4904673;28;20043;-72
2023/07/12 09:22:58;;;;;;;7.55;2.53;;;;;;;19.50;47.39;98497.78;4934439;28;20409;-73
2023/07/12 09:25:33;;;;;;;4.45;3.20;;;;;;;19.29;47.92;98500.44;4932521;28;20054;-72
2023/07/12 09:27:58;;;;;;;;;;;;;;;19.54;47.48;98496.34;4929565;28;20050;-74
2023/07/12 09:30:27;;;;;;;3.58;3.08;;;;;;;19.22;48.10;98500.38;4952312;28;19917;-73
2023/07/12 09:32:57;;;;;;;3.58;3.05;;;;;;;19.15;48.19;98505.72;4924514;28;20046;-73
2023/07/12 09:35:27;;;;;;;5.25;3.40;;;;;;;19.08;48.36;98503.94;4923275;28;20058;-73
2023/07/12 09:38:07;;;;;;;5.25;3.38;;;;;;;19.11;48.62;98488.22;4935460;28;20058;-73
2023/07/12 09:40:42;;;;;;;6.30;3.28;;;;;;;19.03;48.44;98491.03;4936731;28;20058;-73
2023/07/12 09:43:19;;;;;;;4.22;3.83;;;;;;;19.09;48.51;98495.66;4934408;28;20054;-74
2023/07/12 09:46:12;;;;;;;10.48;3.70;;;;;;;19.21;48.50;98494.13;4928419;28;20047;-69
2023/07/12 09:48:50;;;;;;;6.82;3.53;;;;;;;19.18;48.53;98489.13;4951691;28;20498;-71
2023/07/12 09:51:37;;;;;;;3.42;3.13;;;;;;;19.41;47.73;98482.69;4919635;28;20065;-70
2023/07/12 09:54:33;;;;;;;6.43;3.33;;;;;;;19.66;47.37;98477.72;4930722;28;20051;-71
2023/07/12 09:57:11;;;;;;;3.17;2.70;;;;;;;19.84;46.96;98478.09;4949978;28;20482;-70
2023/07/12 09:59:43;;;;;;;4.55;3.10;;;;;;;20.03;46.57;98484.66;4936114;28;20042;-72
2023/07/12 10:02:18;;;;;;;2.78;2.58;;;;;;;20.33;45.37;98477.13;4945338;28;20047;-70
2023/07/12 10:04:55;;;;;;;3.45;2.83;;;;;;;20.52;44.91;98476.44;4926108;28;20054;-72
2023/07/12 10:07:34;;;;;;;2.83;2.63;;;;;;;20.77;44.19;98474.06;4922798;28;20042;-71
2023/07/12 10:09:59;;;;;;;6.53;2.65;;;;;;;20.90;44.46;98471.38;4935770;28;20043;-73
2023/07/12 10:12:46;;;;;;;4.07;2.90;;;;;;;21.14;43.89;98483.53;4935290;28;20046;-73
2023/07/12 10:15:13;;;;;;;3.75;2.97;;;;;;;21.35;44.09;98472.53;4932230;28;20442;-73
2023/07/12 10:17:43;;;;;;;4.00;2.78;;;;;;;21.51;43.08;98472.16;4926954;28;20046;-72
2023/07/12 10:20:22;;;;;;;6.43;2.90;;;;;;;21.81;42.33;98467.13;4934631;28;20414;-73
2023/07/12 10:22:49;;;;;;;4.65;2.92;;;;;;;21.84;41.86;98488.41;4951630;28;20042;-73
2023/07/12 10:25:22;;;;;;;4.88;2.30;;;;;;;22.19;41.51;98459.16;4950436;28;20062;-72
2023/07/12 10:27:57;;;;;;;4.55;2.67;;;;;;;22.60;40.55;98472.41;4928625;28;20047;-73
2023/07/12 10:30:26;;;;;;;3.45;2.55;;;;;;;23.04;40.48;98454.44;4932143;28;20043;-75
2023/07/12 10:33:13;;;;;;;4.57;3.03;;;;;;;23.34;39.94;98468.28;4935988;28;20045;-73
2023/07/12 10:35:47;;;;;;;4.45;2.95;;;;;;;23.43;39.22;98466.97;4926133;28;20041;-73
2023/07/12 10:38:18;;;;;;;4.93;4.10;;;;;;;23.34;39.64;98465.56;4908301;29;20438;-71
2023/07/12 10:40:50;;;;;;;2.97;2.70;;;;;;;23.21;38.02;98458.34;4933609;28;20851;-74
2023/07/12 10:43:36;;;;;;;7.50;2.70;;;;;;;23.15;36.49;98462.75;4921197;28;20047;-71
2023/07/12 10:46:30;;;;;;;2.90;2.58;;;;;;;23.00;37.17;98416.00;4933554;28;20038;-71
2023/07/12 10:56:55;;;;;;;4.88;2.42;;;;;;;22.29;37.38;98454.13;5182924;23;20058;-73
2023/07/12 10:59:33;;;;;;;3.50;2.65;;;;;;;21.96;37.68;98448.75;4955481;28;20065;-73
2023/07/12 11:02:04;;;;;;;5.32;2.95;;;;;;;21.50;37.85;98453.38;4954200;28;20050;-71
2023/07/12 11:04:29;;;;;;;5.28;2.45;;;;;;;20.94;39.06;98459.09;4955950;28;20400;-73
2023/07/12 11:07:23;;;;;;;2.63;2.38;;;;;;;20.54;39.95;98463.56;4971080;28;20078;-72
2023/07/12 11:09:48;;;;;;;4.77;3.03;;;;;;;20.17;40.53;98462.06;4954071;28;20038;-68
2023/07/12 11:12:29;;;;;;;6.32;3.65;;;;;;;19.99;41.17;98476.09;4969980;28;20296;-68
2023/07/12 11:15:06;;;;;;;7.90;4.80;;;;;;;19.76;41.44;98465.53;4968941;28;20501;-68
2023/07/12 11:17:59;;;;;;;5.90;4.78;;;;;;;19.80;41.86;98469.53;4938553;28;20055;-68
2023/07/12 11:20:28;;;;;;;4.78;4.10;;;;;;;19.64;41.83;98467.09;4950064;28;20389;-69
2023/07/12 11:22:55;;;;;;;4.55;3.13;;;;;;;19.56;41.82;98461.84;4947710;28;20416;-67
2023/07/12 11:25:29;;;;;;;4.75;3.60;;;;;;;19.50;41.91;98470.75;4947927;28;20532;-65
2023/07/12 11:28:01;;;;;;;3.45;2.97;;;;;;;19.37;42.56;98471.44;4947327;28;20047;-66
2023/07/12 11:30:27;;;;;;;9.00;3.60;;;;;;;19.23;43.07;98473.16;4953744;28;20043;-67
2023/07/12 11:33:33;;;;;;;5.97;3.30;;;;;;;19.19;44.13;98469.16;4942312;28;20046;-64
2023/07/12 11:36:01;;;;;;;;;;;;;;;19.36;44.11;98468.91;4933676;28;20046;-67
2023/07/12 11:38:29;;;;;;;4.22;3.40;;;;;;;19.04;44.28;98471.09;4922021;28;20093;-67
2023/07/12 11:40:57;;;;;;;16.42;10.15;;;;;;;18.97;44.93;98469.34;4936911;28;20456;-66
2023/07/12 11:43:22;;;;;;;7.53;3.83;;;;;;;18.92;44.97;98472.63;4937326;28;20058;-68
2023/07/12 11:45:51;;;;;;;4.35;2.90;;;;;;;18.90;44.99;98481.94;4937452;28;20073;-69
2023/07/12 11:48:17;;;;;;;3.80;3.28;;;;;;;18.80;44.91;98475.00;4920537;28;20046;-69